Time;durP1;ratioP1;P1;durP2;ratioP2;P2;SDS_P1;SDS_P2;PMS_P1;PMS_P2;Temp;Humidity;BMP_temperature;BMP_pressure;BME280_temperature;BME280_humidity;BME280_pressure;Samples;Min_cycle;Max_cycle;Signal;HPM_P1;HPM_P2
2024/03/15 00:04:11;;;;;;;4.55;2.92;;;14.70;87.00;;;;;;10239067;28;20232;-63
2024/03/15 00:09:15;;;;;;;3.13;2.80;;;14.70;87.30;;;;;;10237657;28;20283;-64
2024/03/15 00:14:19;;;;;;;4.63;2.88;;;14.70;87.50;;;;;;10240866;28;20225;-64
2024/03/15 00:19:22;;;;;;;3.40;3.10;;;14.60;87.20;;;;;;10245768;28;20298;-64
2024/03/15 00:24:26;;;;;;;3.05;2.60;;;14.60;87.50;;;;;;10235175;28;21486;-63
2024/03/15 00:29:30;;;;;;;3.20;2.90;;;14.60;87.50;;;;;;10241331;28;21748;-64
2024/03/15 00:34:34;;;;;;;3.22;2.90;;;14.60;87.50;;;;;;10240302;28;20272;-64
2024/03/15 00:39:38;;;;;;;5.13;3.13;;;14.60;87.50;;;;;;10232640;28;20205;-64
2024/03/15 00:44:42;;;;;;;4.78;3.90;;;14.60;87.60;;;;;;10236485;28;20822;-63
2024/03/15 00:49:46;;;;;;;5.03;3.40;;;14.50;87.90;;;;;;10236711;28;20209;-63
2024/03/15 00:54:50;;;;;;;6.00;3.67;;;14.60;88.10;;;;;;10238022;28;21467;-64
2024/03/15 00:59:54;;;;;;;4.20;3.10;;;14.50;87.90;;;;;;10250136;28;20213;-63
2024/03/15 01:04:57;;;;;;;3.95;3.40;;;14.60;87.80;;;;;;10237736;28;21242;-63
2024/03/15 01:10:01;;;;;;;4.40;3.13;;;14.50;87.80;;;;;;10234371;28;20210;-62
2024/03/15 01:15:06;;;;;;;6.50;3.75;;;14.50;87.90;;;;;;10239699;28;20386;-63
2024/03/15 01:20:10;;;;;;;4.90;3.42;;;14.50;87.90;;;;;;10236097;28;20297;-63
2024/03/15 01:25:14;;;;;;;5.28;3.50;;;14.40;87.90;;;;;;10240008;28;20349;-63
2024/03/15 01:30:17;;;;;;;5.30;3.85;;;14.40;88.20;;;;;;10236648;28;20677;-63
2024/03/15 01:35:22;;;;;;;5.65;3.15;;;14.40;88.40;;;;;;10241629;28;20850;-64
2024/03/15 01:40:26;;;;;;;5.63;3.72;;;14.40;88.60;;;;;;10243789;28;20825;-64
2024/03/15 01:45:29;;;;;;;5.63;3.60;;;14.40;88.50;;;;;;10235382;28;20213;-64
2024/03/15 01:50:33;;;;;;;4.55;3.30;;;14.40;88.40;;;;;;10237526;28;20209;-64
2024/03/15 01:55:37;;;;;;;4.85;3.33;;;14.40;88.50;;;;;;10240241;28;20247;-64
2024/03/15 02:00:41;;;;;;;4.75;3.67;;;14.40;88.50;;;;;;10239952;28;20225;-64
2024/03/15 02:05:45;;;;;;;6.85;3.30;;;14.40;88.40;;;;;;10268994;28;20276;-63
2024/03/15 02:10:49;;;;;;;4.93;3.25;;;14.40;88.60;;;;;;10247241;28;20263;-63
2024/03/15 02:15:52;;;;;;;4.55;2.90;;;14.40;89.00;;;;;;10241849;28;20205;-62
2024/03/15 02:20:56;;;;;;;5.15;2.95;;;14.40;88.70;;;;;;10239516;28;20256;-62
2024/03/15 02:26:00;;;;;;;4.95;3.10;;;14.40;88.60;;;;;;10242662;28;22015;-64
2024/03/15 02:31:03;;;;;;;4.90;3.20;;;14.40;88.80;;;;;;10242801;28;20275;-62
2024/03/15 02:36:10;;;;;;;4.15;3.03;;;14.40;88.60;;;;;;10241236;28;21319;-64
2024/03/15 02:41:15;;;;;;;5.03;2.92;;;14.40;88.80;;;;;;10249960;28;20248;-64
2024/03/15 02:46:19;;;;;;;3.40;2.80;;;14.40;89.00;;;;;;10242345;28;20263;-64
2024/03/15 02:51:25;;;;;;;3.38;2.70;;;14.40;88.90;;;;;;10248655;28;20279;-64
2024/03/15 02:56:29;;;;;;;3.67;2.70;;;14.40;88.90;;;;;;10239221;28;20213;-64
2024/03/15 03:01:32;;;;;;;6.40;3.05;;;14.40;89.30;;;;;;10242097;28;20225;-64
2024/03/15 03:06:36;;;;;;;5.00;2.92;;;14.40;89.10;;;;;;10239826;28;21449;-64
2024/03/15 03:11:40;;;;;;;6.72;3.35;;;14.40;89.00;;;;;;10244273;28;20672;-64
2024/03/15 03:16:44;;;;;;;4.20;2.55;;;14.40;89.00;;;;;;10244134;28;20372;-64
2024/03/15 03:21:48;;;;;;;4.57;2.85;;;14.40;89.40;;;;;;10252187;28;20226;-64
2024/03/15 03:26:52;;;;;;;5.38;2.78;;;14.40;89.40;;;;;;10252523;28;20247;-64
2024/03/15 03:31:56;;;;;;;5.93;2.40;;;14.40;89.20;;;;;;10199524;28;20252;-64
2024/03/15 03:37:00;;;;;;;3.28;2.70;;;14.40;89.00;;;;;;10242065;28;21536;-64
2024/03/15 03:42:04;;;;;;;3.65;2.60;;;14.40;89.10;;;;;;10238102;28;20233;-64
2024/03/15 03:47:08;;;;;;;4.80;2.65;;;14.40;89.20;;;;;;10242334;28;20701;-64
2024/03/15 03:52:12;;;;;;;3.20;2.58;;;14.30;89.10;;;;;;10194177;28;21430;-64
2024/03/15 03:57:21;;;;;;;4.70;2.70;;;14.40;89.20;;;;;;10240336;28;21552;-64
2024/03/15 04:02:44;;;;;;;4.53;2.30;;;14.40;89.40;;;;;;10248458;28;20260;-65
2024/03/15 04:07:49;;;;;;;4.07;2.70;;;14.40;89.40;;;;;;10241137;28;20284;-65
2024/03/15 04:12:55;;;;;;;2.40;2.20;;;14.40;89.40;;;;;;10239882;28;20222;-65
2024/03/15 04:17:58;;;;;;;6.28;2.40;;;14.40;89.50;;;;;;10240286;28;20213;-65
2024/03/15 04:23:03;;;;;;;6.18;2.97;;;14.40;89.40;;;;;;10243097;28;20255;-64
2024/03/15 04:28:08;;;;;;;3.42;2.60;;;14.40;89.40;;;;;;10241412;28;21708;-63
2024/03/15 04:33:12;;;;;;;3.42;2.47;;;14.40;89.50;;;;;;10243004;28;20229;-65
2024/03/15 04:38:16;;;;;;;6.22;3.20;;;14.40;89.40;;;;;;10240696;28;20267;-63
2024/03/15 04:43:19;;;;;;;3.95;3.03;;;14.40;89.50;;;;;;10243363;28;20272;-65
2024/03/15 04:48:23;;;;;;;4.95;2.63;;;14.40;89.40;;;;;;10260105;28;20570;-65
2024/03/15 04:53:27;;;;;;;4.38;2.80;;;14.40;89.50;;;;;;10243186;28;20230;-63
2024/03/15 04:58:33;;;;;;;7.03;2.70;;;14.40;89.50;;;;;;10240900;28;20201;-63
2024/03/15 05:03:37;;;;;;;4.82;3.10;;;14.40;89.50;;;;;;10238442;28;20233;-63
2024/03/15 05:08:41;;;;;;;6.68;3.78;;;14.40;89.70;;;;;;10242941;28;20614;-63
2024/03/15 05:13:49;;;;;;;6.47;3.30;;;14.40;89.60;;;;;;10249042;28;20224;-63
2024/03/15 05:18:53;;;;;;;4.35;3.08;;;14.40;89.70;;;;;;10242228;28;20649;-64
2024/03/15 05:23:57;;;;;;;4.35;2.90;;;14.40;89.80;;;;;;10246004;28;20232;-63
2024/03/15 05:29:01;;;;;;;4.97;2.90;;;14.40;89.60;;;;;;10249133;28;20214;-63
2024/03/15 05:34:07;;;;;;;4.47;3.03;;;14.40;89.80;;;;;;10249097;28;20834;-63
2024/03/15 05:39:11;;;;;;;5.80;3.22;;;14.40;89.80;;;;;;10273641;28;20291;-63
2024/03/15 05:44:15;;;;;;;7.65;4.70;;;14.40;90.00;;;;;;10249750;28;20322;-64
2024/03/15 05:49:22;;;;;;;6.25;3.55;;;14.40;90.10;;;;;;10237136;28;20240;-64
2024/03/15 05:54:26;;;;;;;5.35;3.25;;;14.40;90.30;;;;;;10252817;28;20233;-66
2024/03/15 05:59:31;;;;;;;6.20;3.97;;;14.30;90.20;;;;;;10250458;28;20210;-71
2024/03/15 06:04:34;;;;;;;5.13;3.78;;;14.40;90.50;;;;;;10241948;28;20514;-67
2024/03/15 06:09:39;;;;;;;5.38;3.50;;;14.50;91.00;;;;;;10249328;28;20216;-67
2024/03/15 06:14:43;;;;;;;4.57;3.70;;;14.50;90.60;;;;;;10242769;28;20233;-64
2024/03/15 06:19:48;;;;;;;6.90;3.47;;;14.40;90.70;;;;;;10247340;28;20582;-65
2024/03/15 06:24:54;;;;;;;4.63;3.33;;;14.40;90.70;;;;;;10258005;28;20287;-65
2024/03/15 06:29:58;;;;;;;4.60;3.20;;;14.40;90.60;;;;;;10248370;28;21297;-65
2024/03/15 06:35:16;;;;;;;4.63;3.42;;;14.40;90.80;;;;;;10254352;28;20224;-65
2024/03/15 06:40:30;;;;;;;6.40;3.40;;;14.40;90.70;;;;;;10247063;28;21073;-68
2024/03/15 06:45:44;;;;;;;4.30;2.92;;;14.40;90.70;;;;;;10258100;28;20232;-66
2024/03/15 06:50:50;;;;;;;5.15;2.92;;;14.40;90.70;;;;;;10243908;28;20247;-68
2024/03/15 06:55:55;;;;;;;5.05;3.33;;;14.40;90.60;;;;;;10246248;28;20268;-67
2024/03/15 07:00:59;;;;;;;8.32;3.63;;;14.40;90.70;;;;;;10243841;28;21415;-66
2024/03/15 07:06:04;;;;;;;5.30;3.40;;;14.50;90.70;;;;;;10246773;28;20229;-66
2024/03/15 07:11:08;;;;;;;4.88;3.35;;;14.50;90.70;;;;;;10255529;28;20224;-66
2024/03/15 07:16:12;;;;;;;5.78;3.40;;;14.50;90.80;;;;;;10248451;28;20205;-66
2024/03/15 07:21:17;;;;;;;5.35;3.72;;;14.50;90.80;;;;;;10247623;28;20292;-66
2024/03/15 07:26:22;;;;;;;5.30;3.70;;;14.60;90.80;;;;;;10250170;28;20298;-65
2024/03/15 07:31:26;;;;;;;5.53;3.50;;;14.60;90.80;;;;;;10249386;28;20234;-66
2024/03/15 07:36:32;;;;;;;6.45;3.78;;;14.70;90.90;;;;;;10249450;28;20205;-65
2024/03/15 07:41:37;;;;;;;6.13;3.17;;;14.70;90.80;;;;;;10248796;28;20272;-65
2024/03/15 07:46:42;;;;;;;5.90;3.28;;;14.70;90.80;;;;;;10250632;28;20229;-66
2024/03/15 07:51:46;;;;;;;6.00;3.42;;;14.80;91.00;;;;;;10244631;28;20797;-66
2024/03/15 07:56:50;;;;;;;5.63;3.47;;;14.80;91.00;;;;;;10250686;28;20201;-66
2024/03/15 08:01:55;;;;;;;4.30;3.15;;;14.80;90.90;;;;;;10254483;28;20310;-65
2024/03/15 08:06:59;;;;;;;5.65;3.55;;;14.90;91.10;;;;;;10246288;28;20300;-66
2024/03/15 08:12:03;;;;;;;4.88;2.95;;;14.90;91.20;;;;;;10244797;28;20650;-67
2024/03/15 08:17:08;;;;;;;5.13;3.30;;;15.00;91.20;;;;;;10211451;28;20275;-66
2024/03/15 08:22:12;;;;;;;6.63;3.33;;;15.00;91.40;;;;;;10245066;28;20743;-65
2024/03/15 08:27:16;;;;;;;7.00;3.75;;;15.00;91.40;;;;;;10241128;28;20705;-65
2024/03/15 08:32:20;;;;;;;6.35;3.60;;;15.10;92.00;;;;;;10242661;28;20234;-64
2024/03/15 08:37:23;;;;;;;5.15;3.85;;;15.00;91.60;;;;;;10244449;28;20205;-65
2024/03/15 08:42:28;;;;;;;6.15;3.88;;;15.10;91.60;;;;;;10263701;28;20271;-65
2024/03/15 08:47:31;;;;;;;6.30;3.65;;;15.10;91.60;;;;;;10246628;28;21102;-64
2024/03/15 08:52:55;;;;;;;4.10;3.40;;;15.20;91.90;;;;;;10263492;28;20229;-64
2024/03/15 08:57:59;;;;;;;7.90;4.07;;;15.20;91.80;;;;;;10243457;28;20228;-66
2024/03/15 09:03:05;;;;;;;6.63;3.60;;;15.20;92.10;;;;;;10245679;28;20233;-66
2024/03/15 09:08:12;;;;;;;6.25;3.83;;;15.20;92.00;;;;;;10247798;28;20209;-65
2024/03/15 09:13:17;;;;;;;5.05;3.65;;;15.20;92.10;;;;;;10246834;28;20309;-65
2024/03/15 09:18:21;;;;;;;6.68;3.95;;;15.20;92.10;;;;;;10254517;28;21701;-65
2024/03/15 09:23:25;;;;;;;5.93;3.58;;;15.20;92.20;;;;;;10252772;28;20268;-65
2024/03/15 09:28:33;;;;;;;5.40;4.03;;;15.20;92.20;;;;;;10253709;28;20209;-65
2024/03/15 09:33:41;;;;;;;5.70;3.70;;;15.30;92.30;;;;;;10251018;28;20233;-64
2024/03/15 09:38:46;;;;;;;7.63;3.58;;;15.40;92.20;;;;;;10252411;28;21431;-65
2024/03/15 09:43:50;;;;;;;5.10;3.75;;;15.40;92.30;;;;;;10210774;28;20699;-64
2024/03/15 09:48:56;;;;;;;4.85;3.67;;;15.50;92.40;;;;;;10264642;28;20660;-64
2024/03/15 09:54:02;;;;;;;5.97;4.18;;;15.50;92.20;;;;;;10251839;28;20237;-65
2024/03/15 09:59:06;;;;;;;4.68;3.63;;;15.60;92.20;;;;;;10250498;28;20628;-66
2024/03/15 10:04:09;;;;;;;5.97;4.10;;;15.60;92.30;;;;;;10250671;28;20281;-64
2024/03/15 10:09:13;;;;;;;5.45;3.75;;;15.70;92.20;;;;;;10248094;28;20210;-64
2024/03/15 10:14:17;;;;;;;5.07;3.38;;;15.80;92.10;;;;;;10255051;28;21573;-65
2024/03/15 10:19:23;;;;;;;5.93;3.38;;;15.90;92.00;;;;;;10251172;28;20205;-65
2024/03/15 10:24:26;;;;;;;5.78;3.50;;;16.00;92.00;;;;;;10247520;28;20635;-66
2024/03/15 10:29:30;;;;;;;7.40;3.85;;;16.10;91.80;;;;;;10245772;28;20214;-65
2024/03/15 10:34:34;;;;;;;6.15;3.67;;;16.10;91.80;;;;;;10249357;28;20228;-65
2024/03/15 10:39:40;;;;;;;4.28;3.88;;;16.20;92.10;;;;;;10256208;28;20311;-65
2024/03/15 10:44:44;;;;;;;6.10;4.05;;;16.20;91.80;;;;;;10263767;28;20241;-65
2024/03/15 10:49:48;;;;;;;5.07;3.40;;;16.20;91.80;;;;;;10253373;28;20205;-65
2024/03/15 10:54:52;;;;;;;5.72;3.20;;;16.10;91.90;;;;;;10251865;28;21560;-65
2024/03/15 10:59:56;;;;;;;6.10;3.40;;;16.30;91.80;;;;;;10249488;28;20355;-66
2024/03/15 11:05:00;;;;;;;4.45;3.30;;;16.40;91.80;;;;;;10246471;28;21975;-65
2024/03/15 11:10:09;;;;;;;5.80;2.97;;;16.50;91.70;;;;;;10248149;28;20213;-65
2024/03/15 11:15:17;;;;;;;5.10;2.53;;;16.70;91.60;;;;;;10249088;28;20771;-65
2024/03/15 11:20:21;;;;;;;4.10;2.40;;;17.00;91.40;;;;;;10243794;28;20217;-65
2024/03/15 11:25:28;;;;;;;2.90;2.20;;;17.10;90.80;;;;;;10251571;28;20240;-65
2024/03/15 11:30:32;;;;;;;4.22;2.30;;;17.20;90.60;;;;;;10243139;28;20217;-67
2024/03/15 11:35:37;;;;;;;5.93;1.88;;;17.20;90.40;;;;;;10253328;28;20341;-65
2024/03/15 11:40:41;;;;;;;3.17;2.03;;;17.40;90.40;;;;;;10242246;28;20327;-66
2024/03/15 11:45:46;;;;;;;4.40;1.90;;;17.70;90.00;;;;;;10251372;28;20998;-66
2024/03/15 11:50:51;;;;;;;3.97;1.75;;;17.80;90.10;;;;;;10251051;28;20279;-67
2024/03/15 11:55:56;;;;;;;3.25;1.83;;;17.70;88.30;;;;;;10246928;28;20209;-66
2024/03/15 12:01:00;;;;;;;4.97;1.70;;;17.50;88.20;;;;;;10245704;28;20232;-66
2024/03/15 12:06:07;;;;;;;4.72;1.65;;;17.50;88.90;;;;;;10245440;28;20236;-66
2024/03/15 12:11:14;;;;;;;2.97;1.58;;;18.00;88.20;;;;;;10243815;28;20258;-66
2024/03/15 12:16:18;;;;;;;3.05;1.60;;;18.00;87.10;;;;;;10242965;28;21008;-67
2024/03/15 12:21:22;;;;;;;2.60;1.30;;;17.80;87.60;;;;;;10244399;28;20983;-66
2024/03/15 12:26:25;;;;;;;2.70;1.73;;;17.70;87.20;;;;;;10242639;28;20782;-66
2024/03/15 12:31:29;;;;;;;1.38;1.17;;;17.50;87.20;;;;;;10245397;28;20229;-65
2024/03/15 12:36:33;;;;;;;2.72;1.40;;;17.40;87.20;;;;;;10244237;28;20315;-66
2024/03/15 12:42:01;;;;;;;2.38;1.40;;;17.40;86.30;;;;;;10244386;28;20283;-65
2024/03/15 12:47:04;;;;;;;4.65;1.50;;;17.50;86.30;;;;;;10254855;28;20291;-65
2024/03/15 12:52:08;;;;;;;2.75;1.40;;;18.10;85.80;;;;;;10239981;28;20225;-65
2024/03/15 12:57:12;;;;;;;3.80;1.35;;;18.20;83.50;;;;;;10239805;28;20210;-65
2024/03/15 13:02:19;;;;;;;2.65;1.20;;;17.80;82.10;;;;;;10241404;28;20891;-66
2024/03/15 13:07:23;;;;;;;3.63;1.40;;;17.60;83.30;;;;;;10237427;28;20233;-65
2024/03/15 13:12:26;;;;;;;4.63;1.20;;;17.60;84.40;;;;;;10245347;28;20228;-65
2024/03/15 13:17:30;;;;;;;3.58;1.70;;;17.60;84.70;;;;;;10246247;28;21018;-65
2024/03/15 13:22:34;;;;;;;2.40;1.70;;;17.50;85.30;;;;;;10240267;28;20623;-65
2024/03/15 13:27:37;;;;;;;2.92;1.40;;;17.40;85.90;;;;;;10244444;28;20232;-64
2024/03/15 13:32:41;;;;;;;5.25;1.65;;;17.30;86.90;;;;;;10242085;28;20233;-65
2024/03/15 13:37:45;;;;;;;3.47;1.50;;;17.20;86.60;;;;;;10237965;28;20213;-65
2024/03/15 13:42:50;;;;;;;3.40;1.42;;;17.00;86.80;;;;;;10235783;28;20282;-64
2024/03/15 13:47:54;;;;;;;3.03;1.27;;;16.90;87.30;;;;;;10240371;28;21934;-66
2024/03/15 13:53:00;;;;;;;2.15;1.33;;;16.90;87.10;;;;;;10245608;28;20229;-64
2024/03/15 13:58:04;;;;;;;1.52;0.98;;;16.80;87.30;;;;;;10248084;28;20238;-65
2024/03/15 14:03:08;;;;;;;1.88;0.98;;;16.70;89.00;;;;;;10246893;28;21032;-64
2024/03/15 14:08:12;;;;;;;3.28;1.98;;;16.50;90.00;;;;;;10247267;28;20278;-63
2024/03/15 14:13:17;;;;;;;3.33;1.67;;;16.50;90.40;;;;;;10266270;28;20229;-64
2024/03/15 14:18:22;;;;;;;2.90;1.30;;;16.80;90.60;;;;;;10258048;28;20213;-60
2024/03/15 14:23:26;;;;;;;3.67;1.50;;;17.00;90.50;;;;;;10253864;28;20612;-63
2024/03/15 14:28:30;;;;;;;3.72;1.10;;;16.80;90.10;;;;;;10254757;28;20857;-62
2024/03/15 14:33:35;;;;;;;2.30;1.27;;;16.90;90.20;;;;;;10254585;28;20556;-63
2024/03/15 14:38:40;;;;;;;1.58;1.08;;;17.20;90.20;;;;;;10255997;28;20205;-62
2024/03/15 14:43:44;;;;;;;3.40;1.40;;;17.50;89.80;;;;;;10252506;28;21092;-64
2024/03/15 14:48:48;;;;;;;3.20;1.13;;;17.60;89.60;;;;;;10254742;28;20229;-62
2024/03/15 14:53:51;;;;;;;5.68;1.48;;;17.70;89.40;;;;;;10256255;28;20225;-60
2024/03/15 14:58:57;;;;;;;3.15;1.52;;;17.80;89.30;;;;;;10253298;28;20524;-61
2024/03/15 15:04:01;;;;;;;4.40;1.80;;;17.90;89.30;;;;;;10256003;28;20302;-65
2024/03/15 15:09:08;;;;;;;3.30;1.70;;;17.70;89.70;;;;;;10257656;28;20229;-63
2024/03/15 15:14:11;;;;;;;3.40;1.60;;;17.40;90.00;;;;;;10260601;28;20228;-63
2024/03/15 15:19:15;;;;;;;2.90;1.30;;;17.10;90.00;;;;;;10276153;28;20206;-64
2024/03/15 15:24:20;;;;;;;3.47;0.90;;;16.90;89.70;;;;;;10273039;28;21207;-62
2024/03/15 15:29:25;;;;;;;4.15;0.82;;;16.60;88.90;;;;;;10263194;28;20709;-61
2024/03/15 15:34:29;;;;;;;2.80;0.82;;;16.20;89.30;;;;;;10270064;28;20230;-61
2024/03/15 15:39:34;;;;;;;1.65;0.40;;;15.60;90.20;;;;;;10263956;28;20255;-61
2024/03/15 15:44:38;;;;;;;1.60;0.60;;;15.20;90.70;;;;;;10261655;28;20271;-60
2024/03/15 15:49:43;;;;;;;1.15;0.60;;;14.90;91.00;;;;;;10260658;28;20280;-62
2024/03/15 15:54:47;;;;;;;2.42;0.80;;;14.70;91.30;;;;;;10230322;28;20233;-60
2024/03/15 15:59:51;;;;;;;1.55;0.85;;;14.60;91.60;;;;;;10264348;28;20205;-62
2024/03/15 16:04:54;;;;;;;3.47;1.27;;;14.50;91.80;;;;;;10270940;28;20248;-62
2024/03/15 16:09:58;;;;;;;2.65;1.35;;;14.40;92.10;;;;;;10260749;28;20233;-62
2024/03/15 16:15:02;;;;;;;2.35;0.80;;;14.20;91.90;;;;;;10260445;28;20233;-62
2024/03/15 16:20:09;;;;;;;4.82;1.05;;;14.20;92.10;;;;;;10260587;28;20256;-61
2024/03/15 16:25:15;;;;;;;3.42;1.48;;;14.10;92.20;;;;;;10257966;28;20298;-61
2024/03/15 16:30:19;;;;;;;1.35;0.80;;;14.00;92.20;;;;;;10257484;28;20259;-60
2024/03/15 16:35:23;;;;;;;4.47;2.00;;;14.00;92.50;;;;;;10260245;28;20245;-59
2024/03/15 16:40:27;;;;;;;2.45;0.90;;;13.90;92.60;;;;;;10257971;28;20208;-60
2024/03/15 16:45:31;;;;;;;2.08;1.05;;;13.90;92.80;;;;;;10264425;28;20971;-61
2024/03/15 16:50:35;;;;;;;2.88;1.30;;;13.90;92.90;;;;;;10262094;28;20225;-61
2024/03/15 16:55:38;;;;;;;3.25;0.98;;;13.90;92.80;;;;;;10257441;28;20767;-61
2024/03/15 17:00:42;;;;;;;2.05;1.58;;;13.90;93.20;;;;;;10215124;28;20225;-62
2024/03/15 17:05:46;;;;;;;2.95;1.30;;;13.90;93.10;;;;;;10276567;28;21055;-62
2024/03/15 17:10:49;;;;;;;2.65;1.63;;;13.80;93.10;;;;;;10261600;28;20663;-62
2024/03/15 17:15:56;;;;;;;5.07;1.90;;;13.80;93.10;;;;;;10258014;28;20360;-60
2024/03/15 17:21:01;;;;;;;4.22;2.28;;;13.80;93.10;;;;;;10255962;28;20225;-61
2024/03/15 17:26:05;;;;;;;3.08;1.60;;;13.80;93.40;;;;;;10264230;28;20217;-65
2024/03/15 17:31:09;;;;;;;3.03;1.60;;;13.80;93.40;;;;;;10339440;28;20237;-65
2024/03/15 17:36:15;;;;;;;3.03;1.70;;;13.80;93.50;;;;;;10344065;28;20247;-64
2024/03/15 17:41:19;;;;;;;5.10;1.65;;;13.80;93.40;;;;;;10345476;28;20647;-63
2024/03/15 17:46:22;;;;;;;2.85;1.75;;;13.70;93.80;;;;;;10330003;28;20268;-68
2024/03/15 17:51:26;;;;;;;3.78;1.98;;;13.60;93.70;;;;;;10348543;28;20273;-68
2024/03/15 17:56:30;;;;;;;5.10;2.40;;;13.60;94.10;;;;;;10253395;28;20221;-77
2024/03/15 18:01:34;;;;;;;4.10;1.77;;;13.50;93.90;;;;;;10257618;28;21554;-66
2024/03/15 18:06:38;;;;;;;2.67;1.60;;;13.50;94.00;;;;;;10258328;28;20204;-68
2024/03/15 18:11:42;;;;;;;3.55;1.40;;;13.60;94.00;;;;;;10257287;28;20696;-71
2024/03/15 18:16:46;;;;;;;3.70;2.20;;;13.50;94.40;;;;;;10255354;28;20263;-73
2024/03/15 18:21:50;;;;;;;3.95;2.05;;;13.50;94.50;;;;;;10253357;28;20872;-60
2024/03/15 18:26:54;;;;;;;2.42;1.30;;;13.50;94.20;;;;;;10263007;28;20599;-61
2024/03/15 18:31:58;;;;;;;4.00;1.67;;;13.50;94.40;;;;;;10266470;28;21515;-62
2024/03/15 18:37:02;;;;;;;2.53;0.95;;;13.40;94.20;;;;;;10253132;28;20212;-60
2024/03/15 18:42:07;;;;;;;2.20;1.38;;;13.40;94.20;;;;;;10254380;28;21421;-62
2024/03/15 18:47:14;;;;;;;2.95;1.92;;;13.40;94.40;;;;;;10253944;28;20303;-62
2024/03/15 18:52:18;;;;;;;2.20;1.38;;;13.30;94.50;;;;;;10255184;28;20233;-61
2024/03/15 18:57:22;;;;;;;3.70;1.60;;;13.30;94.20;;;;;;10263950;28;20213;-60
2024/03/15 19:02:28;;;;;;;3.38;1.90;;;13.30;94.30;;;;;;10262517;28;20299;-60
2024/03/15 19:07:32;;;;;;;4.95;2.22;;;13.30;94.50;;;;;;10267215;28;20299;-61
2024/03/15 19:12:39;;;;;;;3.35;1.30;;;13.20;94.10;;;;;;10257548;28;21454;-61
2024/03/15 19:17:43;;;;;;;3.97;1.55;;;13.20;94.20;;;;;;10252982;28;20288;-59
2024/03/15 19:22:47;;;;;;;4.72;1.50;;;13.20;94.20;;;;;;10273800;28;20225;-61
2024/03/15 19:27:50;;;;;;;2.80;1.60;;;13.20;94.10;;;;;;10255579;28;20276;-60
2024/03/15 19:32:54;;;;;;;4.10;2.03;;;13.20;94.40;;;;;;10257231;28;20312;-59
2024/03/15 19:37:58;;;;;;;5.13;1.67;;;13.20;94.30;;;;;;10257442;28;21666;-62
2024/03/15 19:43:02;;;;;;;3.97;1.85;;;13.10;94.30;;;;;;10254724;28;20944;-61
2024/03/15 19:48:06;;;;;;;3.50;1.83;;;13.10;94.10;;;;;;10273696;28;20237;-61
2024/03/15 19:53:10;;;;;;;4.10;1.65;;;13.10;94.50;;;;;;10252469;28;20240;-62
2024/03/15 19:58:14;;;;;;;4.30;1.63;;;13.10;94.40;;;;;;10243459;28;22143;-63
2024/03/15 20:03:18;;;;;;;4.07;1.70;;;13.00;94.50;;;;;;10252119;28;20236;-60
2024/03/15 20:08:22;;;;;;;3.95;1.50;;;13.00;94.30;;;;;;10254390;28;20236;-63
2024/03/15 20:13:26;;;;;;;3.13;1.70;;;13.00;94.60;;;;;;10248396;28;20229;-62
2024/03/15 20:18:30;;;;;;;5.70;2.17;;;13.00;94.20;;;;;;10249620;28;20284;-62
2024/03/15 20:23:33;;;;;;;3.58;1.42;;;13.00;94.50;;;;;;10247611;28;20602;-61
2024/03/15 20:28:37;;;;;;;3.58;2.80;;;12.90;94.70;;;;;;10256142;28;20323;-62
2024/03/15 20:33:41;;;;;;;4.32;1.95;;;12.90;94.30;;;;;;10257463;28;20235;-62
2024/03/15 20:38:45;;;;;;;5.35;2.28;;;12.80;94.40;;;;;;10251535;28;20283;-61
2024/03/15 20:43:49;;;;;;;3.50;1.98;;;12.80;94.30;;;;;;10220366;28;20782;-60
2024/03/15 20:48:53;;;;;;;5.28;2.05;;;12.80;94.40;;;;;;10254490;28;20251;-61
2024/03/15 20:53:56;;;;;;;3.85;1.95;;;12.80;94.40;;;;;;10260905;28;20229;-60
2024/03/15 20:59:01;;;;;;;6.57;2.35;;;12.80;94.50;;;;;;10255404;28;20209;-62
2024/03/15 21:04:05;;;;;;;4.82;2.22;;;12.70;94.50;;;;;;10257898;28;20275;-61
2024/03/15 21:09:09;;;;;;;3.53;2.03;;;12.70;94.40;;;;;;10258215;28;20221;-61
2024/03/15 21:14:13;;;;;;;4.70;2.15;;;12.80;94.50;;;;;;10279485;28;20228;-64
2024/03/15 21:19:17;;;;;;;5.35;2.42;;;12.80;94.60;;;;;;10252485;28;20205;-61
2024/03/15 21:24:21;;;;;;;5.03;2.30;;;12.70;94.70;;;;;;10250334;28;20271;-62
2024/03/15 21:29:25;;;;;;;4.28;2.22;;;12.70;94.70;;;;;;10252569;28;20229;-62
2024/03/15 21:34:29;;;;;;;5.57;2.00;;;12.70;94.60;;;;;;10218241;28;20232;-62
2024/03/15 21:39:32;;;;;;;5.28;2.10;;;12.70;94.50;;;;;;10252809;28;20209;-62
2024/03/15 21:44:41;;;;;;;6.00;2.20;;;12.70;94.80;;;;;;10276684;28;20323;-61
2024/03/15 21:49:48;;;;;;;5.93;2.05;;;12.70;95.00;;;;;;10253153;28;20229;-61
2024/03/15 21:54:52;;;;;;;3.83;2.10;;;12.70;94.80;;;;;;10263921;28;20234;-62
2024/03/15 21:59:56;;;;;;;5.88;2.13;;;12.70;94.90;;;;;;10255351;28;20198;-64
2024/03/15 22:05:00;;;;;;;5.47;1.95;;;12.70;94.60;;;;;;10230013;28;20225;-64
2024/03/15 22:10:06;;;;;;;3.53;1.83;;;12.70;94.70;;;;;;10226915;28;21619;-62
2024/03/15 22:15:09;;;;;;;6.45;4.22;;;12.70;94.70;;;;;;10232562;28;20300;-61
2024/03/15 22:20:14;;;;;;;3.80;1.80;;;12.70;94.70;;;;;;10232702;28;20206;-60
2024/03/15 22:25:17;;;;;;;6.65;2.53;;;12.70;94.80;;;;;;10233272;28;20249;-59
2024/03/15 22:30:30;;;;;;;5.47;2.25;;;12.80;94.80;;;;;;10231954;28;21745;-61
2024/03/15 22:35:34;;;;;;;5.03;2.30;;;12.80;94.70;;;;;;10241102;28;20279;-60
2024/03/15 22:40:38;;;;;;;7.07;2.47;;;12.80;94.90;;;;;;10238817;28;20631;-61
2024/03/15 22:45:43;;;;;;;6.45;2.60;;;12.80;94.70;;;;;;10240097;28;20216;-59
2024/03/15 22:50:47;;;;;;;8.45;2.33;;;12.80;94.70;;;;;;10233116;28;20237;-61
2024/03/15 22:55:51;;;;;;;8.57;2.28;;;12.80;94.60;;;;;;10191651;28;21206;-61
2024/03/15 23:00:54;;;;;;;8.32;2.38;;;12.80;94.60;;;;;;10240692;28;20225;-60
2024/03/15 23:05:58;;;;;;;7.13;2.92;;;12.80;94.90;;;;;;10233385;28;21254;-60
2024/03/15 23:11:02;;;;;;;8.77;2.60;;;12.80;94.60;;;;;;10231623;28;20621;-61
2024/03/15 23:16:06;;;;;;;6.80;2.50;;;12.80;94.80;;;;;;10231961;28;20566;-60
2024/03/15 23:21:10;;;;;;;6.63;2.63;;;12.70;94.70;;;;;;10230062;28;20229;-59
2024/03/15 23:26:13;;;;;;;6.35;2.70;;;12.70;94.80;;;;;;10229110;28;20305;-58
2024/03/15 23:31:17;;;;;;;4.70;2.25;;;12.70;94.80;;;;;;10182047;28;20236;-61
2024/03/15 23:36:21;;;;;;;6.68;2.50;;;12.70;94.80;;;;;;10230366;28;20323;-60
2024/03/15 23:41:25;;;;;;;8.75;2.72;;;12.70;94.90;;;;;;10230481;28;21613;-61
2024/03/15 23:46:35;;;;;;;5.10;2.53;;;12.70;94.90;;;;;;10237856;28;20290;-59
2024/03/15 23:51:39;;;;;;;6.18;2.28;;;12.70;94.90;;;;;;10229027;28;20229;-60
2024/03/15 23:56:43;;;;;;;5.50;2.22;;;12.70;94.80;;;;;;10238299;28;20218;-62
